sensor_id;sensor_type;location;lat;lon;timestamp;P1;durP1;ratioP1;P2;durP2;ratioP2
21505;SDS011;10914;48.886;9.394;2023-04-15T00:01:37;34.60;;;32.50;;
21505;SDS011;10914;48.886;9.394;2023-04-15T00:04:02;34.30;;;32.15;;
21505;SDS011;10914;48.886;9.394;2023-04-15T00:06:28;33.78;;;31.77;;
21505;SDS011;10914;48.886;9.394;2023-04-15T00:08:53;35.63;;;33.23;;
21505;SDS011;10914;48.886;9.394;2023-04-15T00:11:19;35.67;;;33.55;;
21505;SDS011;10914;48.886;9.394;2023-04-15T00:13:44;36.70;;;34.25;;
21505;SDS011;10914;48.886;9.394;2023-04-15T00:16:10;36.53;;;34.33;;
21505;SDS011;10914;48.886;9.394;2023-04-15T00:18:36;35.33;;;33.22;;
21505;SDS011;10914;48.886;9.394;2023-04-15T00:21:01;36.15;;;33.80;;
21505;SDS011;10914;48.886;9.394;2023-04-15T00:23:27;35.63;;;33.63;;
21505;SDS011;10914;48.886;9.394;2023-04-15T00:25:52;35.15;;;33.10;;
21505;SDS011;10914;48.886;9.394;2023-04-15T00:28:17;36.22;;;33.95;;
21505;SDS011;10914;48.886;9.394;2023-04-15T00:30:43;36.90;;;34.53;;
21505;SDS011;10914;48.886;9.394;2023-04-15T00:33:08;37.00;;;34.90;;
21505;SDS011;10914;48.886;9.394;2023-04-15T00:35:34;37.35;;;35.08;;
21505;SDS011;10914;48.886;9.394;2023-04-15T00:38:00;39.33;;;36.92;;
21505;SDS011;10914;48.886;9.394;2023-04-15T00:40:25;38.03;;;35.83;;
21505;SDS011;10914;48.886;9.394;2023-04-15T00:42:51;35.30;;;33.28;;
21505;SDS011;10914;48.886;9.394;2023-04-15T00:45:17;35.15;;;32.97;;
21505;SDS011;10914;48.886;9.394;2023-04-15T00:47:43;35.80;;;33.58;;
21505;SDS011;10914;48.886;9.394;2023-04-15T00:50:08;35.70;;;33.60;;
21505;SDS011;10914;48.886;9.394;2023-04-15T00:52:34;36.50;;;34.33;;
21505;SDS011;10914;48.886;9.394;2023-04-15T00:55:00;37.45;;;35.22;;
21505;SDS011;10914;48.886;9.394;2023-04-15T00:57:26;38.40;;;36.00;;
21505;SDS011;10914;48.886;9.394;2023-04-15T00:59:52;38.50;;;36.10;;
21505;SDS011;10914;48.886;9.394;2023-04-15T01:02:18;37.42;;;35.13;;
21505;SDS011;10914;48.886;9.394;2023-04-15T01:04:43;37.67;;;35.33;;
21505;SDS011;10914;48.886;9.394;2023-04-15T01:07:08;37.22;;;35.03;;
21505;SDS011;10914;48.886;9.394;2023-04-15T01:09:34;37.30;;;35.10;;
21505;SDS011;10914;48.886;9.394;2023-04-15T01:11:59;36.03;;;33.83;;
21505;SDS011;10914;48.886;9.394;2023-04-15T01:14:24;34.83;;;32.67;;
21505;SDS011;10914;48.886;9.394;2023-04-15T01:16:51;34.63;;;32.63;;
21505;SDS011;10914;48.886;9.394;2023-04-15T01:19:16;32.40;;;30.40;;
21505;SDS011;10914;48.886;9.394;2023-04-15T01:21:42;34.28;;;32.03;;
21505;SDS011;10914;48.886;9.394;2023-04-15T01:24:08;33.53;;;31.30;;
21505;SDS011;10914;48.886;9.394;2023-04-15T01:26:34;32.65;;;30.45;;
21505;SDS011;10914;48.886;9.394;2023-04-15T01:29:00;32.83;;;30.65;;
21505;SDS011;10914;48.886;9.394;2023-04-15T01:31:25;30.02;;;28.20;;
21505;SDS011;10914;48.886;9.394;2023-04-15T01:33:51;31.75;;;29.83;;
21505;SDS011;10914;48.886;9.394;2023-04-15T01:36:16;30.90;;;28.92;;
21505;SDS011;10914;48.886;9.394;2023-04-15T01:38:42;31.40;;;29.20;;
21505;SDS011;10914;48.886;9.394;2023-04-15T01:41:07;31.75;;;29.75;;
21505;SDS011;10914;48.886;9.394;2023-04-15T01:43:33;31.88;;;29.83;;
21505;SDS011;10914;48.886;9.394;2023-04-15T01:45:59;31.08;;;29.10;;
21505;SDS011;10914;48.886;9.394;2023-04-15T01:48:24;30.75;;;28.73;;
21505;SDS011;10914;48.886;9.394;2023-04-15T01:50:49;29.83;;;28.02;;
21505;SDS011;10914;48.886;9.394;2023-04-15T01:53:15;30.35;;;28.25;;
21505;SDS011;10914;48.886;9.394;2023-04-15T01:55:41;30.58;;;28.60;;
21505;SDS011;10914;48.886;9.394;2023-04-15T01:58:06;30.58;;;28.75;;
21505;SDS011;10914;48.886;9.394;2023-04-15T02:00:31;30.90;;;28.88;;
21505;SDS011;10914;48.886;9.394;2023-04-15T02:02:57;31.05;;;28.95;;
21505;SDS011;10914;48.886;9.394;2023-04-15T02:05:23;30.67;;;28.65;;
21505;SDS011;10914;48.886;9.394;2023-04-15T02:07:49;29.23;;;27.38;;
21505;SDS011;10914;48.886;9.394;2023-04-15T02:10:14;30.48;;;28.45;;
21505;SDS011;10914;48.886;9.394;2023-04-15T02:12:40;31.23;;;29.23;;
21505;SDS011;10914;48.886;9.394;2023-04-15T02:15:06;31.05;;;28.90;;
21505;SDS011;10914;48.886;9.394;2023-04-15T02:17:35;31.42;;;29.13;;
21505;SDS011;10914;48.886;9.394;2023-04-15T02:20:00;30.00;;;28.08;;
21505;SDS011;10914;48.886;9.394;2023-04-15T02:22:25;29.92;;;27.77;;
21505;SDS011;10914;48.886;9.394;2023-04-15T02:24:50;30.10;;;28.05;;
21505;SDS011;10914;48.886;9.394;2023-04-15T02:27:16;30.05;;;28.15;;
21505;SDS011;10914;48.886;9.394;2023-04-15T02:29:42;30.20;;;28.20;;
21505;SDS011;10914;48.886;9.394;2023-04-15T02:32:08;30.38;;;28.48;;
21505;SDS011;10914;48.886;9.394;2023-04-15T02:34:33;31.20;;;29.13;;
21505;SDS011;10914;48.886;9.394;2023-04-15T02:36:58;30.50;;;28.57;;
21505;SDS011;10914;48.886;9.394;2023-04-15T02:39:23;30.52;;;28.73;;
21505;SDS011;10914;48.886;9.394;2023-04-15T02:41:49;30.25;;;28.40;;
21505;SDS011;10914;48.886;9.394;2023-04-15T02:44:16;30.05;;;28.15;;
21505;SDS011;10914;48.886;9.394;2023-04-15T02:46:44;31.23;;;29.02;;
21505;SDS011;10914;48.886;9.394;2023-04-15T02:49:12;30.67;;;28.83;;
21505;SDS011;10914;48.886;9.394;2023-04-15T02:51:38;30.17;;;28.30;;
21505;SDS011;10914;48.886;9.394;2023-04-15T02:54:03;29.85;;;27.95;;
21505;SDS011;10914;48.886;9.394;2023-04-15T02:56:28;30.52;;;28.30;;
21505;SDS011;10914;48.886;9.394;2023-04-15T02:58:54;30.95;;;28.95;;
21505;SDS011;10914;48.886;9.394;2023-04-15T03:01:20;30.52;;;28.58;;
21505;SDS011;10914;48.886;9.394;2023-04-15T03:03:46;31.70;;;29.60;;
21505;SDS011;10914;48.886;9.394;2023-04-15T03:06:11;30.17;;;28.27;;
21505;SDS011;10914;48.886;9.394;2023-04-15T03:08:36;30.92;;;28.90;;
21505;SDS011;10914;48.886;9.394;2023-04-15T03:11:01;32.45;;;30.35;;
21505;SDS011;10914;48.886;9.394;2023-04-15T03:13:26;32.92;;;30.73;;
21505;SDS011;10914;48.886;9.394;2023-04-15T03:15:52;33.13;;;30.95;;
21505;SDS011;10914;48.886;9.394;2023-04-15T03:18:17;32.22;;;30.20;;
21505;SDS011;10914;48.886;9.394;2023-04-15T03:20:42;32.60;;;30.50;;
21505;SDS011;10914;48.886;9.394;2023-04-15T03:23:07;32.63;;;30.58;;
21505;SDS011;10914;48.886;9.394;2023-04-15T03:25:32;33.25;;;31.05;;
21505;SDS011;10914;48.886;9.394;2023-04-15T03:27:58;34.00;;;31.70;;
21505;SDS011;10914;48.886;9.394;2023-04-15T03:30:23;32.88;;;30.88;;
21505;SDS011;10914;48.886;9.394;2023-04-15T03:32:48;33.13;;;31.13;;
21505;SDS011;10914;48.886;9.394;2023-04-15T03:35:14;32.25;;;30.35;;
21505;SDS011;10914;48.886;9.394;2023-04-15T03:37:39;33.53;;;31.23;;
21505;SDS011;10914;48.886;9.394;2023-04-15T03:40:05;32.10;;;30.20;;
21505;SDS011;10914;48.886;9.394;2023-04-15T03:42:31;33.50;;;31.27;;
21505;SDS011;10914;48.886;9.394;2023-04-15T03:44:56;33.87;;;31.57;;
21505;SDS011;10914;48.886;9.394;2023-04-15T03:47:21;33.08;;;30.85;;
21505;SDS011;10914;48.886;9.394;2023-04-15T03:49:46;32.80;;;30.83;;
21505;SDS011;10914;48.886;9.394;2023-04-15T03:52:12;32.08;;;30.00;;
21505;SDS011;10914;48.886;9.394;2023-04-15T03:54:37;32.50;;;30.55;;
21505;SDS011;10914;48.886;9.394;2023-04-15T03:57:02;32.65;;;30.65;;
21505;SDS011;10914;48.886;9.394;2023-04-15T03:59:27;32.15;;;30.05;;
21505;SDS011;10914;48.886;9.394;2023-04-15T04:01:52;32.63;;;30.52;;
21505;SDS011;10914;48.886;9.394;2023-04-15T04:04:17;31.70;;;29.80;;
21505;SDS011;10914;48.886;9.394;2023-04-15T04:06:43;33.42;;;31.15;;
21505;SDS011;10914;48.886;9.394;2023-04-15T04:09:08;32.42;;;30.38;;
21505;SDS011;10914;48.886;9.394;2023-04-15T04:11:33;33.40;;;31.20;;
21505;SDS011;10914;48.886;9.394;2023-04-15T04:13:58;31.73;;;29.73;;
21505;SDS011;10914;48.886;9.394;2023-04-15T04:16:23;32.10;;;30.20;;
21505;SDS011;10914;48.886;9.394;2023-04-15T04:18:48;32.55;;;30.55;;
21505;SDS011;10914;48.886;9.394;2023-04-15T04:21:14;31.80;;;29.65;;
21505;SDS011;10914;48.886;9.394;2023-04-15T04:23:39;31.95;;;29.92;;
21505;SDS011;10914;48.886;9.394;2023-04-15T04:26:04;32.33;;;30.27;;
21505;SDS011;10914;48.886;9.394;2023-04-15T04:28:30;32.25;;;30.25;;
21505;SDS011;10914;48.886;9.394;2023-04-15T04:30:55;32.35;;;30.30;;
21505;SDS011;10914;48.886;9.394;2023-04-15T04:33:20;32.03;;;30.02;;
21505;SDS011;10914;48.886;9.394;2023-04-15T04:35:46;32.13;;;30.13;;
21505;SDS011;10914;48.886;9.394;2023-04-15T04:38:11;31.45;;;29.25;;
21505;SDS011;10914;48.886;9.394;2023-04-15T04:40:36;30.25;;;28.35;;
21505;SDS011;10914;48.886;9.394;2023-04-15T04:43:01;31.13;;;29.10;;
21505;SDS011;10914;48.886;9.394;2023-04-15T04:45:26;31.63;;;29.73;;
21505;SDS011;10914;48.886;9.394;2023-04-15T04:47:51;31.13;;;29.23;;
21505;SDS011;10914;48.886;9.394;2023-04-15T04:50:17;31.75;;;29.60;;
21505;SDS011;10914;48.886;9.394;2023-04-15T04:52:42;32.13;;;29.95;;
21505;SDS011;10914;48.886;9.394;2023-04-15T04:55:07;32.03;;;29.80;;
21505;SDS011;10914;48.886;9.394;2023-04-15T04:57:32;30.38;;;28.58;;
21505;SDS011;10914;48.886;9.394;2023-04-15T04:59:59;31.95;;;29.92;;
21505;SDS011;10914;48.886;9.394;2023-04-15T05:02:25;32.00;;;29.75;;
21505;SDS011;10914;48.886;9.394;2023-04-15T05:04:51;31.70;;;29.73;;
21505;SDS011;10914;48.886;9.394;2023-04-15T05:07:18;32.17;;;30.08;;
21505;SDS011;10914;48.886;9.394;2023-04-15T05:09:44;32.80;;;30.52;;
21505;SDS011;10914;48.886;9.394;2023-04-15T05:12:10;32.63;;;30.52;;
21505;SDS011;10914;48.886;9.394;2023-04-15T05:14:38;31.20;;;29.25;;
21505;SDS011;10914;48.886;9.394;2023-04-15T05:17:04;30.45;;;28.58;;
21505;SDS011;10914;48.886;9.394;2023-04-15T05:19:29;31.92;;;29.70;;
21505;SDS011;10914;48.886;9.394;2023-04-15T05:21:54;30.20;;;28.30;;
21505;SDS011;10914;48.886;9.394;2023-04-15T05:24:20;37.10;;;34.58;;
21505;SDS011;10914;48.886;9.394;2023-04-15T05:26:45;32.13;;;30.13;;
21505;SDS011;10914;48.886;9.394;2023-04-15T05:29:11;31.48;;;29.40;;
21505;SDS011;10914;48.886;9.394;2023-04-15T05:31:36;30.92;;;28.83;;
21505;SDS011;10914;48.886;9.394;2023-04-15T05:34:01;30.70;;;28.65;;
21505;SDS011;10914;48.886;9.394;2023-04-15T05:36:27;31.30;;;29.30;;
21505;SDS011;10914;48.886;9.394;2023-04-15T05:38:52;31.30;;;29.33;;
21505;SDS011;10914;48.886;9.394;2023-04-15T05:41:18;30.50;;;28.50;;
21505;SDS011;10914;48.886;9.394;2023-04-15T05:43:43;31.38;;;29.38;;
21505;SDS011;10914;48.886;9.394;2023-04-15T05:46:08;29.70;;;28.00;;
21505;SDS011;10914;48.886;9.394;2023-04-15T05:48:33;30.75;;;28.67;;
21505;SDS011;10914;48.886;9.394;2023-04-15T05:50:59;30.67;;;28.57;;
21505;SDS011;10914;48.886;9.394;2023-04-15T05:53:24;30.75;;;28.90;;
21505;SDS011;10914;48.886;9.394;2023-04-15T05:55:49;30.55;;;28.48;;
21505;SDS011;10914;48.886;9.394;2023-04-15T05:58:15;32.35;;;30.15;;
21505;SDS011;10914;48.886;9.394;2023-04-15T06:00:41;31.70;;;29.70;;
21505;SDS011;10914;48.886;9.394;2023-04-15T06:03:06;31.20;;;29.23;;
21505;SDS011;10914;48.886;9.394;2023-04-15T06:05:31;32.72;;;30.70;;
21505;SDS011;10914;48.886;9.394;2023-04-15T06:07:57;37.53;;;35.13;;
21505;SDS011;10914;48.886;9.394;2023-04-15T06:10:22;36.63;;;34.38;;
21505;SDS011;10914;48.886;9.394;2023-04-15T06:12:47;36.42;;;34.22;;
21505;SDS011;10914;48.886;9.394;2023-04-15T06:15:13;33.30;;;31.20;;
21505;SDS011;10914;48.886;9.394;2023-04-15T06:17:38;31.23;;;29.33;;
21505;SDS011;10914;48.886;9.394;2023-04-15T06:20:03;31.05;;;29.00;;
21505;SDS011;10914;48.886;9.394;2023-04-15T06:22:29;31.90;;;29.70;;
21505;SDS011;10914;48.886;9.394;2023-04-15T06:24:54;29.98;;;28.05;;
21505;SDS011;10914;48.886;9.394;2023-04-15T06:27:19;30.63;;;28.40;;
21505;SDS011;10914;48.886;9.394;2023-04-15T06:29:45;30.58;;;28.58;;
21505;SDS011;10914;48.886;9.394;2023-04-15T06:32:10;29.55;;;27.70;;
21505;SDS011;10914;48.886;9.394;2023-04-15T06:34:36;29.95;;;28.08;;
21505;SDS011;10914;48.886;9.394;2023-04-15T06:37:01;31.67;;;29.67;;
21505;SDS011;10914;48.886;9.394;2023-04-15T06:39:26;30.88;;;28.98;;
21505;SDS011;10914;48.886;9.394;2023-04-15T06:41:52;31.27;;;29.38;;
21505;SDS011;10914;48.886;9.394;2023-04-15T06:44:17;29.90;;;27.90;;
21505;SDS011;10914;48.886;9.394;2023-04-15T06:46:42;29.88;;;27.92;;
21505;SDS011;10914;48.886;9.394;2023-04-15T06:49:07;30.23;;;28.13;;
21505;SDS011;10914;48.886;9.394;2023-04-15T06:51:33;28.67;;;26.88;;
21505;SDS011;10914;48.886;9.394;2023-04-15T06:53:58;28.90;;;27.00;;
21505;SDS011;10914;48.886;9.394;2023-04-15T06:56:24;28.35;;;26.65;;
21505;SDS011;10914;48.886;9.394;2023-04-15T06:58:49;29.10;;;27.15;;
21505;SDS011;10914;48.886;9.394;2023-04-15T07:01:14;29.17;;;27.20;;
21505;SDS011;10914;48.886;9.394;2023-04-15T07:03:39;29.95;;;27.98;;
21505;SDS011;10914;48.886;9.394;2023-04-15T07:06:05;29.00;;;27.30;;
21505;SDS011;10914;48.886;9.394;2023-04-15T07:08:32;32.53;;;30.42;;
21505;SDS011;10914;48.886;9.394;2023-04-15T07:10:57;35.70;;;33.47;;
21505;SDS011;10914;48.886;9.394;2023-04-15T07:13:23;33.80;;;31.88;;
21505;SDS011;10914;48.886;9.394;2023-04-15T07:15:48;32.45;;;30.35;;
21505;SDS011;10914;48.886;9.394;2023-04-15T07:18:13;29.80;;;27.88;;
21505;SDS011;10914;48.886;9.394;2023-04-15T07:20:38;29.73;;;27.70;;
21505;SDS011;10914;48.886;9.394;2023-04-15T07:23:03;28.63;;;26.55;;
21505;SDS011;10914;48.886;9.394;2023-04-15T07:25:29;28.20;;;26.40;;
21505;SDS011;10914;48.886;9.394;2023-04-15T07:27:54;28.42;;;26.73;;
21505;SDS011;10914;48.886;9.394;2023-04-15T07:30:20;29.33;;;27.23;;
21505;SDS011;10914;48.886;9.394;2023-04-15T07:32:45;28.58;;;26.65;;
21505;SDS011;10914;48.886;9.394;2023-04-15T07:35:10;28.05;;;26.05;;
21505;SDS011;10914;48.886;9.394;2023-04-15T07:37:36;28.05;;;26.25;;
21505;SDS011;10914;48.886;9.394;2023-04-15T07:40:01;27.75;;;25.98;;
21505;SDS011;10914;48.886;9.394;2023-04-15T07:42:28;27.33;;;25.63;;
21505;SDS011;10914;48.886;9.394;2023-04-15T07:44:53;27.98;;;26.05;;
21505;SDS011;10914;48.886;9.394;2023-04-15T07:47:19;28.77;;;26.95;;
21505;SDS011;10914;48.886;9.394;2023-04-15T07:49:44;34.00;;;31.00;;
21505;SDS011;10914;48.886;9.394;2023-04-15T07:52:09;32.45;;;29.80;;
21505;SDS011;10914;48.886;9.394;2023-04-15T07:54:34;28.50;;;26.70;;
21505;SDS011;10914;48.886;9.394;2023-04-15T07:57:00;30.33;;;28.13;;
21505;SDS011;10914;48.886;9.394;2023-04-15T07:59:25;34.50;;;32.10;;
21505;SDS011;10914;48.886;9.394;2023-04-15T08:01:52;33.08;;;30.98;;
21505;SDS011;10914;48.886;9.394;2023-04-15T08:04:18;32.35;;;30.25;;
21505;SDS011;10914;48.886;9.394;2023-04-15T08:06:43;32.08;;;30.13;;
21505;SDS011;10914;48.886;9.394;2023-04-15T08:09:08;31.27;;;29.27;;
21505;SDS011;10914;48.886;9.394;2023-04-15T08:11:34;32.42;;;30.48;;
21505;SDS011;10914;48.886;9.394;2023-04-15T08:13:59;33.63;;;31.30;;
21505;SDS011;10914;48.886;9.394;2023-04-15T08:16:25;31.30;;;29.38;;
21505;SDS011;10914;48.886;9.394;2023-04-15T08:18:52;32.03;;;30.08;;
21505;SDS011;10914;48.886;9.394;2023-04-15T08:21:18;33.70;;;31.63;;
21505;SDS011;10914;48.886;9.394;2023-04-15T08:23:44;35.55;;;32.92;;
21505;SDS011;10914;48.886;9.394;2023-04-15T08:26:10;32.20;;;30.10;;
21505;SDS011;10914;48.886;9.394;2023-04-15T08:28:37;33.35;;;31.23;;
21505;SDS011;10914;48.886;9.394;2023-04-15T08:31:02;31.98;;;30.08;;
21505;SDS011;10914;48.886;9.394;2023-04-15T08:33:27;32.08;;;29.90;;
21505;SDS011;10914;48.886;9.394;2023-04-15T08:35:52;30.53;;;28.70;;
21505;SDS011;10914;48.886;9.394;2023-04-15T08:38:18;29.75;;;27.73;;
21505;SDS011;10914;48.886;9.394;2023-04-15T08:40:43;28.50;;;26.70;;
21505;SDS011;10914;48.886;9.394;2023-04-15T08:43:10;27.45;;;25.55;;
21505;SDS011;10914;48.886;9.394;2023-04-15T08:45:37;28.30;;;26.20;;
21505;SDS011;10914;48.886;9.394;2023-04-15T08:48:03;27.30;;;25.48;;
21505;SDS011;10914;48.886;9.394;2023-04-15T08:50:28;28.35;;;26.40;;
21505;SDS011;10914;48.886;9.394;2023-04-15T08:52:56;26.35;;;24.70;;
21505;SDS011;10914;48.886;9.394;2023-04-15T08:55:22;26.00;;;24.20;;
21505;SDS011;10914;48.886;9.394;2023-04-15T08:57:48;26.05;;;24.45;;
21505;SDS011;10914;48.886;9.394;2023-04-15T09:00:14;25.73;;;24.08;;
21505;SDS011;10914;48.886;9.394;2023-04-15T09:02:40;25.48;;;23.88;;
21505;SDS011;10914;48.886;9.394;2023-04-15T09:05:06;24.80;;;23.30;;
21505;SDS011;10914;48.886;9.394;2023-04-15T09:07:33;25.48;;;23.88;;
21505;SDS011;10914;48.886;9.394;2023-04-15T09:09:59;24.85;;;23.25;;
21505;SDS011;10914;48.886;9.394;2023-04-15T09:12:25;25.45;;;23.77;;
21505;SDS011;10914;48.886;9.394;2023-04-15T09:14:50;25.60;;;23.90;;
21505;SDS011;10914;48.886;9.394;2023-04-15T09:17:17;25.80;;;24.30;;
21505;SDS011;10914;48.886;9.394;2023-04-15T09:19:42;24.88;;;23.27;;
21505;SDS011;10914;48.886;9.394;2023-04-15T09:22:07;24.25;;;22.65;;
21505;SDS011;10914;48.886;9.394;2023-04-15T09:24:36;25.13;;;23.42;;
21505;SDS011;10914;48.886;9.394;2023-04-15T09:27:07;25.20;;;23.55;;
21505;SDS011;10914;48.886;9.394;2023-04-15T09:29:32;24.38;;;22.90;;
21505;SDS011;10914;48.886;9.394;2023-04-15T09:32:08;24.63;;;22.88;;
21505;SDS011;10914;48.886;9.394;2023-04-15T09:34:34;24.35;;;22.85;;
21505;SDS011;10914;48.886;9.394;2023-04-15T09:36:59;24.65;;;23.08;;
21505;SDS011;10914;48.886;9.394;2023-04-15T09:39:25;24.35;;;22.85;;
21505;SDS011;10914;48.886;9.394;2023-04-15T09:42:03;24.85;;;23.25;;
21505;SDS011;10914;48.886;9.394;2023-04-15T09:44:29;24.50;;;23.00;;
21505;SDS011;10914;48.886;9.394;2023-04-15T09:46:54;24.70;;;23.08;;
21505;SDS011;10914;48.886;9.394;2023-04-15T09:49:19;24.42;;;22.77;;
21505;SDS011;10914;48.886;9.394;2023-04-15T09:51:45;26.65;;;24.92;;
21505;SDS011;10914;48.886;9.394;2023-04-15T09:54:11;28.35;;;26.73;;
21505;SDS011;10914;48.886;9.394;2023-04-15T09:56:36;32.25;;;30.17;;
21505;SDS011;10914;48.886;9.394;2023-04-15T09:59:03;30.13;;;28.42;;
21505;SDS011;10914;48.886;9.394;2023-04-15T10:01:29;27.02;;;25.35;;
21505;SDS011;10914;48.886;9.394;2023-04-15T10:03:54;26.33;;;24.75;;
21505;SDS011;10914;48.886;9.394;2023-04-15T10:06:21;25.55;;;23.92;;
21505;SDS011;10914;48.886;9.394;2023-04-15T10:08:47;25.80;;;23.98;;
21505;SDS011;10914;48.886;9.394;2023-04-15T10:11:13;25.40;;;23.77;;
21505;SDS011;10914;48.886;9.394;2023-04-15T10:13:38;24.70;;;23.20;;
21505;SDS011;10914;48.886;9.394;2023-04-15T10:16:11;25.17;;;23.58;;
21505;SDS011;10914;48.886;9.394;2023-04-15T10:18:42;24.88;;;23.38;;
21505;SDS011;10914;48.886;9.394;2023-04-15T10:21:07;25.15;;;23.42;;
21505;SDS011;10914;48.886;9.394;2023-04-15T10:23:32;24.52;;;22.80;;
21505;SDS011;10914;48.886;9.394;2023-04-15T10:25:58;24.13;;;22.52;;
21505;SDS011;10914;48.886;9.394;2023-04-15T10:28:23;24.00;;;22.50;;
21505;SDS011;10914;48.886;9.394;2023-04-15T10:30:48;24.23;;;22.63;;
21505;SDS011;10914;48.886;9.394;2023-04-15T10:33:14;24.98;;;23.27;;
21505;SDS011;10914;48.886;9.394;2023-04-15T10:35:41;24.15;;;22.58;;
21505;SDS011;10914;48.886;9.394;2023-04-15T10:38:30;23.88;;;22.38;;
21505;SDS011;10914;48.886;9.394;2023-04-15T10:40:51;24.70;;;23.10;;
21505;SDS011;10914;48.886;9.394;2023-04-15T10:43:24;23.90;;;22.40;;
21505;SDS011;10914;48.886;9.394;2023-04-15T10:45:49;25.73;;;24.13;;
21505;SDS011;10914;48.886;9.394;2023-04-15T10:48:14;25.67;;;24.23;;
21505;SDS011;10914;48.886;9.394;2023-04-15T10:50:40;25.50;;;23.80;;
21505;SDS011;10914;48.886;9.394;2023-04-15T10:53:05;25.70;;;23.90;;
21505;SDS011;10914;48.886;9.394;2023-04-15T10:55:34;25.73;;;24.10;;
21505;SDS011;10914;48.886;9.394;2023-04-15T10:57:59;25.93;;;24.33;;
21505;SDS011;10914;48.886;9.394;2023-04-15T11:00:26;24.92;;;23.27;;
21505;SDS011;10914;48.886;9.394;2023-04-15T11:02:53;24.75;;;23.13;;
21505;SDS011;10914;48.886;9.394;2023-04-15T11:05:20;24.90;;;23.23;;
21505;SDS011;10914;48.886;9.394;2023-04-15T11:07:50;23.55;;;22.02;;
21505;SDS011;10914;48.886;9.394;2023-04-15T11:12:50;24.20;;;22.55;;
21505;SDS011;10914;48.886;9.394;2023-04-15T11:15:29;24.55;;;23.05;;
21505;SDS011;10914;48.886;9.394;2023-04-15T11:17:54;25.10;;;23.35;;
21505;SDS011;10914;48.886;9.394;2023-04-15T11:20:20;24.55;;;23.05;;
21505;SDS011;10914;48.886;9.394;2023-04-15T11:22:49;24.58;;;22.98;;
21505;SDS011;10914;48.886;9.394;2023-04-15T11:25:47;25.20;;;23.67;;
21505;SDS011;10914;48.886;9.394;2023-04-15T11:28:06;24.42;;;22.90;;
21505;SDS011;10914;48.886;9.394;2023-04-15T11:30:33;24.05;;;22.50;;
21505;SDS011;10914;48.886;9.394;2023-04-15T11:32:59;24.35;;;22.85;;
21505;SDS011;10914;48.886;9.394;2023-04-15T11:35:25;24.60;;;23.05;;
21505;SDS011;10914;48.886;9.394;2023-04-15T11:37:50;25.15;;;23.65;;
21505;SDS011;10914;48.886;9.394;2023-04-15T11:40:16;25.60;;;24.00;;
21505;SDS011;10914;48.886;9.394;2023-04-15T11:42:42;24.48;;;22.98;;
21505;SDS011;10914;48.886;9.394;2023-04-15T11:45:08;25.52;;;23.92;;
21505;SDS011;10914;48.886;9.394;2023-04-15T11:47:34;26.25;;;24.50;;
21505;SDS011;10914;48.886;9.394;2023-04-15T11:50:19;26.23;;;24.42;;
21505;SDS011;10914;48.886;9.394;2023-04-15T11:52:55;27.38;;;25.38;;
21505;SDS011;10914;48.886;9.394;2023-04-15T11:55:20;26.20;;;24.50;;
21505;SDS011;10914;48.886;9.394;2023-04-15T11:57:47;25.50;;;24.10;;
21505;SDS011;10914;48.886;9.394;2023-04-15T12:00:13;24.70;;;23.30;;
21505;SDS011;10914;48.886;9.394;2023-04-15T12:02:38;25.95;;;23.98;;
21505;SDS011;10914;48.886;9.394;2023-04-15T12:05:03;25.63;;;24.13;;
21505;SDS011;10914;48.886;9.394;2023-04-15T12:07:30;28.67;;;27.05;;
21505;SDS011;10914;48.886;9.394;2023-04-15T12:09:56;31.88;;;30.00;;
21505;SDS011;10914;48.886;9.394;2023-04-15T12:12:25;31.10;;;29.05;;
21505;SDS011;10914;48.886;9.394;2023-04-15T12:14:51;29.17;;;27.40;;
21505;SDS011;10914;48.886;9.394;2023-04-15T12:17:16;28.17;;;26.38;;
21505;SDS011;10914;48.886;9.394;2023-04-15T12:19:41;25.70;;;24.20;;
21505;SDS011;10914;48.886;9.394;2023-04-15T12:22:10;25.50;;;23.75;;
21505;SDS011;10914;48.886;9.394;2023-04-15T12:24:36;25.38;;;23.77;;
21505;SDS011;10914;48.886;9.394;2023-04-15T12:27:02;24.67;;;23.20;;
21505;SDS011;10914;48.886;9.394;2023-04-15T12:29:28;24.02;;;22.70;;
21505;SDS011;10914;48.886;9.394;2023-04-15T12:31:55;23.77;;;22.42;;
21505;SDS011;10914;48.886;9.394;2023-04-15T12:36:52;23.98;;;22.67;;
21505;SDS011;10914;48.886;9.394;2023-04-15T12:39:20;23.15;;;21.85;;
21505;SDS011;10914;48.886;9.394;2023-04-15T12:41:45;23.08;;;21.70;;
21505;SDS011;10914;48.886;9.394;2023-04-15T12:44:10;23.97;;;22.43;;
21505;SDS011;10914;48.886;9.394;2023-04-15T12:46:36;27.27;;;25.55;;
21505;SDS011;10914;48.886;9.394;2023-04-15T12:49:01;22.70;;;21.40;;
21505;SDS011;10914;48.886;9.394;2023-04-15T12:51:26;23.90;;;22.40;;
21505;SDS011;10914;48.886;9.394;2023-04-15T12:53:52;22.42;;;21.17;;
21505;SDS011;10914;48.886;9.394;2023-04-15T12:56:17;22.60;;;21.50;;
21505;SDS011;10914;48.886;9.394;2023-04-15T12:58:42;22.60;;;21.33;;
21505;SDS011;10914;48.886;9.394;2023-04-15T13:01:08;22.67;;;21.50;;
21505;SDS011;10914;48.886;9.394;2023-04-15T13:03:34;22.55;;;21.45;;
21505;SDS011;10914;48.886;9.394;2023-04-15T13:05:59;22.98;;;21.48;;
21505;SDS011;10914;48.886;9.394;2023-04-15T13:08:26;22.27;;;20.98;;
21505;SDS011;10914;48.886;9.394;2023-04-15T13:10:51;22.33;;;21.23;;
21505;SDS011;10914;48.886;9.394;2023-04-15T13:13:16;22.35;;;21.17;;
21505;SDS011;10914;48.886;9.394;2023-04-15T13:15:41;21.73;;;20.63;;
21505;SDS011;10914;48.886;9.394;2023-04-15T13:18:09;22.75;;;21.55;;
21505;SDS011;10914;48.886;9.394;2023-04-15T13:20:34;23.03;;;21.83;;
21505;SDS011;10914;48.886;9.394;2023-04-15T13:23:00;22.10;;;21.00;;
21505;SDS011;10914;48.886;9.394;2023-04-15T13:25:25;22.30;;;21.10;;
21505;SDS011;10914;48.886;9.394;2023-04-15T13:27:51;21.98;;;20.60;;
21505;SDS011;10914;48.886;9.394;2023-04-15T13:30:16;21.93;;;20.73;;
21505;SDS011;10914;48.886;9.394;2023-04-15T13:32:43;22.40;;;21.20;;
21505;SDS011;10914;48.886;9.394;2023-04-15T13:35:08;22.33;;;21.13;;
21505;SDS011;10914;48.886;9.394;2023-04-15T13:37:33;22.38;;;21.27;;
21505;SDS011;10914;48.886;9.394;2023-04-15T13:39:59;21.80;;;20.70;;
21505;SDS011;10914;48.886;9.394;2023-04-15T13:42:24;21.95;;;20.85;;
21505;SDS011;10914;48.886;9.394;2023-04-15T13:44:50;21.77;;;20.67;;
21505;SDS011;10914;48.886;9.394;2023-04-15T13:47:15;21.17;;;20.15;;
21505;SDS011;10914;48.886;9.394;2023-04-15T13:49:41;22.13;;;20.98;;
21505;SDS011;10914;48.886;9.394;2023-04-15T13:52:06;21.83;;;20.70;;
21505;SDS011;10914;48.886;9.394;2023-04-15T13:54:31;22.25;;;21.02;;
21505;SDS011;10914;48.886;9.394;2023-04-15T13:56:56;21.77;;;20.67;;
21505;SDS011;10914;48.886;9.394;2023-04-15T13:59:22;21.80;;;20.58;;
21505;SDS011;10914;48.886;9.394;2023-04-15T14:01:47;21.85;;;20.85;;
21505;SDS011;10914;48.886;9.394;2023-04-15T14:04:12;21.40;;;20.25;;
21505;SDS011;10914;48.886;9.394;2023-04-15T14:06:37;24.65;;;23.25;;
21505;SDS011;10914;48.886;9.394;2023-04-15T14:09:02;30.17;;;27.93;;
21505;SDS011;10914;48.886;9.394;2023-04-15T14:11:28;26.73;;;24.73;;
21505;SDS011;10914;48.886;9.394;2023-04-15T14:13:53;23.45;;;22.17;;
21505;SDS011;10914;48.886;9.394;2023-04-15T14:16:19;22.87;;;21.67;;
21505;SDS011;10914;48.886;9.394;2023-04-15T14:18:44;22.70;;;21.40;;